createdAt,value
2023-11-23T04:14:38.567Z,99243.47
2023-11-23T04:17:05.984Z,99147.63
2023-11-23T04:19:55.735Z,99203.19
2023-11-23T04:22:22.952Z,99092.63
2023-11-23T04:24:50.821Z,99159.56
2023-11-23T04:27:20.050Z,99012.34
2023-11-23T04:29:49.220Z,99059.84
2023-11-23T04:32:23.954Z,99063.75
2023-11-23T04:34:50.822Z,99206.50
2023-11-23T04:37:19.003Z,98919.34
2023-11-23T04:39:46.027Z,99072.00
2023-11-23T04:42:13.763Z,98929.25
2023-11-23T04:44:41.913Z,99188.41
2023-11-23T04:47:11.208Z,99066.84
2023-11-23T04:49:38.337Z,99026.53
2023-11-23T04:52:06.855Z,98961.78
2023-11-23T04:54:35.697Z,99082.56
2023-11-23T04:57:02.802Z,99116.78
2023-11-23T04:59:29.576Z,99173.63
2023-11-23T05:01:57.097Z,99107.53
2023-11-23T05:04:35.898Z,99007.75
2023-11-23T05:07:02.840Z,99061.28
2023-11-23T05:09:29.807Z,99010.97
2023-11-23T05:11:59.852Z,99022.63
2023-11-23T05:14:26.830Z,98998.13
2023-11-23T05:16:53.947Z,99182.78
2023-11-23T05:19:31.812Z,99188.16
2023-11-23T05:22:06.732Z,98906.97
2023-11-23T05:24:33.837Z,99152.13
2023-11-23T05:27:00.992Z,99022.66
2023-11-23T05:29:29.641Z,99036.53
2023-11-23T05:31:58.019Z,98975.13
2023-11-23T05:34:26.963Z,99029.34
2023-11-23T05:36:56.067Z,99118.38
2023-11-23T05:39:42.730Z,99106.06
2023-11-23T05:42:18.989Z,98945.41
2023-11-23T05:45:10.585Z,99157.06
2023-11-23T05:47:38.466Z,99214.06
2023-11-23T05:50:12.829Z,98944.38
2023-11-23T05:52:41.074Z,99077.50
2023-11-23T05:55:08.954Z,99091.50
2023-11-23T05:57:40.845Z,99184.44
2023-11-23T06:00:32.468Z,99097.63
2023-11-23T06:02:59.611Z,99011.97
2023-11-23T06:05:26.777Z,99096.03
2023-11-23T06:07:54.004Z,99054.91
2023-11-23T06:10:21.439Z,99232.03
2023-11-23T06:12:48.462Z,98940.50
2023-11-23T06:15:15.471Z,99021.63
2023-11-23T06:17:42.503Z,98958.63
2023-11-23T06:20:09.910Z,99033.91
2023-11-23T06:22:36.866Z,99099.63
2023-11-23T06:25:05.128Z,99041.69
2023-11-23T06:27:33.417Z,99012.56
2023-11-23T06:30:00.709Z,99102.72
2023-11-23T06:32:27.921Z,99044.41
2023-11-23T06:34:54.822Z,99027.94
2023-11-23T06:37:21.871Z,99228.19
2023-11-23T06:39:48.930Z,99070.13
2023-11-23T06:42:15.856Z,99236.72
2023-11-23T06:44:42.809Z,99023.31
2023-11-23T06:47:09.662Z,99207.44
2023-11-23T06:49:36.620Z,99163.03
2023-11-23T06:52:03.817Z,99154.41
2023-11-23T06:54:30.803Z,98979.00
2023-11-23T06:56:58.550Z,99055.38
2023-11-23T06:59:25.685Z,99070.56
2023-11-23T07:01:52.660Z,98957.06
2023-11-23T07:04:19.630Z,99128.03
2023-11-23T07:06:46.597Z,99049.38
2023-11-23T07:09:15.188Z,99146.66
2023-11-23T07:11:42.284Z,99163.41
2023-11-23T07:14:09.281Z,99097.84
2023-11-23T07:17:13.988Z,99156.41
2023-11-23T07:20:11.296Z,98969.19
2023-11-23T07:22:48.329Z,98961.09
2023-11-23T07:25:20.861Z,99015.34
2023-11-23T07:27:57.504Z,99095.13
2023-11-23T07:34:41.265Z,98885.34
2023-11-23T07:37:16.223Z,98843.63
2023-11-23T07:39:51.259Z,99175.38
2023-11-23T07:42:23.159Z,98929.19
2023-11-23T07:45:20.690Z,99096.97
2023-11-23T07:47:58.045Z,99052.53
2023-11-23T07:50:27.573Z,98920.31
2023-11-23T07:52:58.685Z,99094.94
2023-11-23T07:55:47.285Z,99124.63
2023-11-23T07:58:19.412Z,99219.22
2023-11-23T08:00:48.882Z,98929.81
2023-11-23T08:03:16.192Z,99211.34
2023-11-23T08:05:49.304Z,99239.72
2023-11-23T08:08:19.608Z,98879.94
2023-11-23T08:10:58.094Z,99061.34
2023-11-23T08:13:30.956Z,99075.13
2023-11-23T08:16:30.761Z,99090.97
2023-11-23T08:19:49.770Z,99143.19
2023-11-23T08:22:20.768Z,98898.19
2023-11-23T08:24:52.321Z,99019.47
2023-11-23T08:27:19.418Z,99047.78
2023-11-23T08:29:47.444Z,98955.50
2023-11-23T08:32:16.628Z,98931.22
2023-11-23T08:34:45.018Z,99020.34
2023-11-23T08:37:12.538Z,99005.31
2023-11-23T08:39:41.351Z,99091.06
2023-11-23T08:42:08.862Z,99196.31
2023-11-23T08:44:36.368Z,99059.31
2023-11-23T08:47:03.802Z,99002.81
2023-11-23T08:49:32.534Z,99007.16
2023-11-23T08:51:59.767Z,98881.69
2023-11-23T08:54:26.836Z,98826.72
2023-11-23T08:56:57.677Z,99152.38
2023-11-23T08:59:24.748Z,99054.22
2023-11-23T09:01:58.784Z,99136.50
2023-11-23T09:04:40.070Z,98944.19
2023-11-23T09:07:12.355Z,98949.69
2023-11-23T09:09:42.019Z,98803.69
2023-11-23T09:12:09.272Z,98976.28
2023-11-23T09:14:46.502Z,98894.13
2023-11-23T09:17:21.802Z,98859.34
2023-11-23T09:19:48.943Z,98768.22
2023-11-23T09:22:15.974Z,98920.13
2023-11-23T09:24:44.087Z,99032.56
2023-11-23T09:27:12.362Z,98963.91
2023-11-23T09:29:39.533Z,99040.47
2023-11-23T09:32:06.881Z,99131.59
2023-11-23T09:34:36.367Z,98991.19
2023-11-23T09:37:03.309Z,99093.34
2023-11-23T09:39:30.424Z,98956.50
2023-11-23T09:42:00.024Z,98914.13
2023-11-23T09:44:27.558Z,99100.66
2023-11-23T09:46:56.781Z,98875.47
2023-11-23T09:49:25.065Z,98794.81
2023-11-23T09:51:53.396Z,99043.56
2023-11-23T09:54:24.777Z,99059.28
2023-11-23T09:56:52.210Z,99048.09
2023-11-23T09:59:19.092Z,98944.94
2023-11-23T10:01:49.202Z,98895.69
2023-11-23T10:04:17.160Z,99006.53
2023-11-23T10:06:44.400Z,98838.47
2023-11-23T10:09:16.336Z,98966.72
2023-11-23T10:11:44.151Z,98940.72
2023-11-23T10:14:13.168Z,99003.16
2023-11-23T10:16:40.219Z,99004.06
2023-11-23T10:19:07.675Z,98940.78
2023-11-23T10:21:35.665Z,98898.34
2023-11-23T10:24:09.206Z,98980.66
2023-11-23T10:26:36.346Z,98848.19
2023-11-23T10:29:03.765Z,98835.16
2023-11-23T10:31:32.335Z,98913.91
2023-11-23T10:34:00.558Z,98938.25
2023-11-23T10:36:28.713Z,98916.56
2023-11-23T10:39:01.172Z,98650.19
2023-11-23T10:41:28.653Z,98924.41
2023-11-23T10:43:59.005Z,98760.00
2023-11-23T10:46:26.298Z,98851.72
2023-11-23T10:48:54.613Z,98809.31
2023-11-23T10:51:25.372Z,98915.75
2023-11-23T10:53:52.417Z,98663.19
2023-11-23T10:56:28.058Z,98903.63
2023-11-23T10:58:59.808Z,98767.81
2023-11-23T11:01:28.026Z,98882.00
2023-11-23T11:03:55.556Z,98824.03
2023-11-23T11:06:24.354Z,98819.69
2023-11-23T11:08:51.667Z,98690.00
2023-11-23T11:11:23.944Z,98801.53
2023-11-23T11:14:17.851Z,98850.84
2023-11-23T11:16:44.974Z,98758.31
2023-11-23T11:19:15.170Z,98709.03
2023-11-23T11:21:48.460Z,98818.00
2023-11-23T11:24:22.989Z,98927.88
2023-11-23T11:26:51.186Z,98741.84
2023-11-23T11:29:24.002Z,98645.94
2023-11-23T11:31:51.092Z,98756.59
2023-11-23T11:34:22.701Z,98900.19
2023-11-23T11:37:03.473Z,98925.22
2023-11-23T11:39:37.195Z,98811.06
2023-11-23T11:42:08.694Z,98856.06
2023-11-23T11:44:36.767Z,98782.53
2023-11-23T11:47:09.375Z,98673.59
2023-11-23T11:49:36.611Z,98780.78
2023-11-23T11:52:03.898Z,98862.09
2023-11-23T11:54:31.496Z,98787.72
2023-11-23T11:56:58.513Z,98735.84
2023-11-23T11:59:29.637Z,98874.16
2023-11-23T12:01:58.025Z,98743.59
2023-11-23T12:04:25.362Z,98574.25
2023-11-23T12:06:53.974Z,98731.47
2023-11-23T12:09:34.344Z,98871.47
2023-11-23T12:12:11.931Z,98863.78
2023-11-23T12:14:39.107Z,98824.63
2023-11-23T12:17:14.093Z,98752.00
2023-11-23T12:19:55.707Z,98747.81
2023-11-23T12:22:28.454Z,98795.34
2023-11-23T12:24:56.929Z,98809.88
2023-11-23T12:27:26.448Z,98806.41
2023-11-23T12:29:53.814Z,98549.13
2023-11-23T12:32:20.622Z,98788.28
2023-11-23T12:34:59.234Z,98798.44
2023-11-23T12:37:26.592Z,98680.25
2023-11-23T12:39:55.844Z,98504.19
2023-11-23T12:42:24.078Z,98557.59
2023-11-23T12:44:54.772Z,98762.19
2023-11-23T12:47:22.615Z,98731.94
2023-11-23T12:49:52.543Z,98683.63
2023-11-23T12:52:29.405Z,98640.50
2023-11-23T12:54:56.411Z,98464.38
2023-11-23T12:57:23.449Z,98724.91
2023-11-23T12:59:51.010Z,98785.28
2023-11-23T13:02:20.811Z,98696.28
2023-11-23T13:04:48.595Z,98774.09
2023-11-23T13:07:15.804Z,98647.16
2023-11-23T13:09:44.881Z,98565.16
2023-11-23T13:12:15.195Z,98627.19
2023-11-23T13:14:56.321Z,98721.25
2023-11-23T13:17:28.292Z,98621.06
2023-11-23T13:19:55.286Z,98624.41
2023-11-23T13:22:24.343Z,98530.53
2023-11-23T13:25:01.207Z,98654.66
2023-11-23T13:28:30.021Z,98733.31
2023-11-23T13:31:01.761Z,98628.22
2023-11-23T13:33:39.907Z,98624.50
2023-11-23T13:38:59.403Z,98447.75
2023-11-23T13:39:24.600Z,98567.50
2023-11-23T13:41:58.632Z,98688.25
2023-11-23T13:44:43.238Z,98602.78
2023-11-23T13:47:15.210Z,98402.81
2023-11-23T13:49:59.367Z,98729.59
2023-11-23T13:52:28.638Z,98703.69
2023-11-23T13:55:01.489Z,98657.16
2023-11-23T13:57:28.497Z,98587.25
2023-11-23T13:59:55.553Z,98341.63
2023-11-23T14:02:26.620Z,98654.53
2023-11-23T14:04:53.940Z,98492.31
2023-11-23T14:07:20.823Z,98489.78
2023-11-23T14:09:49.951Z,98700.97
2023-11-23T14:12:19.976Z,98643.31
2023-11-23T14:14:49.513Z,98534.47
2023-11-23T14:17:35.790Z,98379.56
2023-11-23T14:20:13.645Z,98554.44
2023-11-23T14:22:48.231Z,98510.38
2023-11-23T14:25:18.306Z,98377.50
2023-11-23T14:27:55.517Z,98674.06
2023-11-23T14:30:38.862Z,98501.88
2023-11-23T14:33:23.547Z,98355.28
2023-11-23T14:35:54.634Z,98362.38
2023-11-23T14:38:24.257Z,98334.72
2023-11-23T14:40:52.431Z,98537.25
2023-11-23T14:43:29.888Z,98542.34
2023-11-23T14:46:00.925Z,98497.56
2023-11-23T14:48:27.999Z,98595.78
2023-11-23T14:51:04.402Z,98599.22
2023-11-23T14:53:31.628Z,98534.50
2023-11-23T14:56:02.758Z,98586.13
2023-11-23T14:58:35.234Z,98500.91
2023-11-23T15:01:02.325Z,98411.28
2023-11-23T15:03:31.801Z,98529.31
2023-11-23T15:06:00.630Z,98411.25
2023-11-23T15:08:27.574Z,98588.84
2023-11-23T15:10:57.166Z,98403.41
2023-11-23T15:13:36.083Z,98484.41
2023-11-23T15:16:07.473Z,98631.84
2023-11-23T15:18:37.183Z,98546.25
2023-11-23T15:21:08.100Z,98560.97
2023-11-23T15:23:39.539Z,98551.50
2023-11-23T15:26:10.006Z,98526.44
2023-11-23T15:28:43.974Z,98488.50
2023-11-23T15:31:11.820Z,98452.41
2023-11-23T15:33:49.503Z,98468.75
2023-11-23T15:36:23.685Z,98479.88
2023-11-23T15:38:51.943Z,98444.44
2023-11-23T15:41:19.373Z,98376.44
2023-11-23T15:43:46.344Z,98325.59
2023-11-23T15:46:13.447Z,98408.28
2023-11-23T15:49:04.058Z,98366.91
2023-11-23T15:52:08.693Z,98394.59
2023-11-23T15:55:05.605Z,98494.41
2023-11-23T15:58:32.028Z,98337.59
2023-11-23T16:00:42.006Z,98372.91
2023-11-23T16:03:15.974Z,98358.16
2023-11-23T16:05:43.063Z,98229.94
2023-11-23T16:08:26.702Z,98383.09
2023-11-23T16:10:53.644Z,98264.94
2023-11-23T16:13:23.349Z,98365.69
2023-11-23T16:15:55.848Z,98364.88
2023-11-23T16:18:22.910Z,98373.28
2023-11-23T16:20:51.920Z,98512.88
2023-11-23T16:23:18.974Z,98484.41
2023-11-23T16:25:53.327Z,98343.91
2023-11-23T16:28:21.276Z,98444.75
2023-11-23T16:30:51.167Z,98308.88
2023-11-23T16:33:30.384Z,98435.56
2023-11-23T16:36:00.815Z,98458.38
2023-11-23T16:45:36.131Z,98315.38
2023-11-23T16:48:16.436Z,98455.06
2023-11-23T16:50:47.399Z,98435.13
2023-11-23T16:54:02.169Z,98430.84
2023-11-23T16:56:36.018Z,98466.97
2023-11-23T16:59:12.709Z,98334.38
2023-11-23T17:01:42.870Z,98292.94
2023-11-23T17:04:11.426Z,98391.88
2023-11-23T17:06:43.846Z,98187.47
2023-11-23T17:09:14.999Z,98341.97
2023-11-23T17:11:54.081Z,98184.63
2023-11-23T17:15:31.692Z,98278.28
2023-11-23T17:19:00.186Z,98228.53
2023-11-23T17:22:04.300Z,98501.06
2023-11-23T17:25:16.584Z,98506.31
2023-11-23T17:28:24.289Z,98476.75
2023-11-23T17:31:03.741Z,98469.00
2023-11-23T17:33:31.624Z,98445.44
2023-11-23T17:35:58.436Z,98463.50
2023-11-23T17:38:25.452Z,98445.41
2023-11-23T17:40:52.070Z,98447.94
2023-11-23T17:43:19.321Z,98464.22
2023-11-23T17:45:48.448Z,98453.91
2023-11-23T17:48:15.331Z,98420.28
2023-11-23T17:50:41.931Z,98417.78
2023-11-23T17:53:10.851Z,98413.97
2023-11-23T17:55:37.414Z,98420.97
2023-11-23T17:58:04.149Z,98420.16
2023-11-23T18:00:31.618Z,98414.00
2023-11-23T18:02:58.843Z,98405.16
2023-11-23T18:05:44.834Z,98418.16
2023-11-23T18:08:31.785Z,98412.94
2023-11-23T18:11:18.938Z,98415.53
2023-11-23T18:14:06.338Z,98404.28
2023-11-23T18:16:53.429Z,98387.13
2023-11-23T18:19:40.397Z,98392.06
2023-11-23T18:22:27.355Z,98378.91
2023-11-23T18:25:14.574Z,98380.78
2023-11-23T18:28:01.521Z,98349.53
2023-11-23T18:30:51.761Z,98368.47
2023-11-23T18:33:38.757Z,98377.97
2023-11-23T18:36:25.726Z,98340.88
2023-11-23T18:39:14.968Z,98331.31
2023-11-23T18:42:02.421Z,98345.91
2023-11-23T18:44:49.453Z,98347.59
2023-11-23T18:47:36.758Z,98356.19
2023-11-23T18:50:24.451Z,98345.78
2023-11-23T18:53:11.373Z,98328.78
2023-11-23T18:55:58.344Z,98355.47
2023-11-23T18:58:45.795Z,98363.97
2023-11-23T19:01:33.425Z,98356.09
2023-11-23T19:04:20.550Z,98338.84
2023-11-23T19:07:07.622Z,98343.00
2023-11-23T19:09:54.568Z,98321.63
2023-11-23T19:12:51.587Z,98314.72
2023-11-23T19:15:41.581Z,98310.75
2023-11-23T19:18:28.778Z,98324.56
2023-11-23T19:21:16.905Z,98315.16
2023-11-23T19:24:04.292Z,98308.38
2023-11-23T19:26:51.545Z,98289.16
2023-11-23T19:29:45.880Z,98285.56
2023-11-23T19:32:35.690Z,98259.78
2023-11-23T19:35:23.171Z,98253.75
2023-11-23T19:38:10.473Z,98262.94
2023-11-23T19:41:02.418Z,98245.00
2023-11-23T19:43:50.014Z,98249.94
2023-11-23T19:46:37.458Z,98233.28
2023-11-23T19:49:25.234Z,98236.72
2023-11-23T19:52:26.141Z,98238.22
2023-11-23T19:55:14.212Z,98227.78
2023-11-23T19:58:01.483Z,98209.06
2023-11-23T20:00:48.492Z,98239.16
2023-11-23T20:03:35.515Z,98234.56
2023-11-23T20:06:22.876Z,98192.34
2023-11-23T20:09:11.065Z,98204.94
2023-11-23T20:11:58.346Z,98195.38
2023-11-23T20:14:45.299Z,98203.97
2023-11-23T20:17:32.200Z,98202.97
2023-11-23T20:20:19.184Z,98143.63
2023-11-23T20:23:06.228Z,98184.72
2023-11-23T20:25:53.168Z,98200.94
2023-11-23T20:28:40.964Z,98197.41
2023-11-23T20:31:29.451Z,98195.50
2023-11-23T20:34:16.493Z,98189.38
2023-11-23T20:37:04.119Z,98164.31
2023-11-23T20:39:51.436Z,98136.13
2023-11-23T20:42:40.143Z,98176.38
2023-11-23T20:45:27.113Z,98155.53
